Hauptseite
METAR-TAF:

METAR-TAF

Flughäfen :

Rom-Fiumicino, Italien

Flughafen Rom-Fiumicino

Breite: 41-48N, Länge: 012-14E, Höhe: 2 m

Beobachtung

Neuester Wetterbericht von vor 37 Minuten, um 23:20 UTC
Wind 6 kt aus Nord
Temperatur 7°C
Luftfeuchtigkeit 31%
Luftdruck 1017 hPa
Sichtweite 10 km oder mehr
keine Wolken unter 1500 m und keine Kumulonimbus oder Gewitterwolken

METAR: LIRF 172320Z 36006KT CAVOK 07/M09 Q1017 NOSIG

Zeit: 00:57 (23:57 UTC)

Prognose

Neuester Wetterbericht von vor 57 Minuten, um 23:00 UTC
Gültige Prognose vom 18 um 00 UTC bis 19 um 06 UTC
Wind 13 kt aus Nord/Nordwest
Sichtweite 10 km oder mehr
keine Wolken unter 1500 m und keine Kumulonimbus oder Gewitterwolken
Übergehend zu
vom 18 um 00 UTC bis 18 um 03 UTC
Wind 10 kt aus Nord/Nordost
Übergehend zu
vom 18 um 09 UTC bis 18 um 12 UTC
Wind 12 kt aus Südwest

TAF: LIRF 172300Z 1800/1906 33013KT CAVOK BECMG 1800/1803 02010KT BECMG 1809/1812 22012KT

Wetterbeobachtungen und Prognosen von mehr als 4000 Flughäfen (METAR und TAF Bericht).

Die verfügbaren Stationen werden durch gelbe und rote Markierungen auf der Karte dargestellt.

Führen Sie die Maus auf sie, um den Namen der Station zu sehen.

Darauf klicken, um die Beobachtung von Wetterbeobachtungen und Prognosen zu sehen.

Um die Karte zu ändern : klicken Sie auf den grünen Tasten mit einem schwarzen Kreuz Zum Vergrößern, auf den grünen Button mit einem Gedankenstrich zu verkleinern, oder auf die grünen Pfeile für benachbarte Karten.


METAR-TAF: